sensor_id;sensor_type;location;lat;lon;timestamp;P1;durP1;ratioP1;P2;durP2;ratioP2
21266;SDS011;10791;53.108;18.326;2022-12-29T00:02:45;13.23;;;7.63;;
21266;SDS011;10791;53.108;18.326;2022-12-29T00:07:49;15.53;;;8.57;;
21266;SDS011;10791;53.108;18.326;2022-12-29T00:12:53;13.47;;;7.33;;
21266;SDS011;10791;53.108;18.326;2022-12-29T00:18:14;12.80;;;7.90;;
21266;SDS011;10791;53.108;18.326;2022-12-29T00:23:19;16.17;;;8.97;;
21266;SDS011;10791;53.108;18.326;2022-12-29T00:28:41;15.37;;;8.93;;
21266;SDS011;10791;53.108;18.326;2022-12-29T00:34:03;14.97;;;8.67;;
21266;SDS011;10791;53.108;18.326;2022-12-29T00:39:26;13.10;;;8.57;;
21266;SDS011;10791;53.108;18.326;2022-12-29T00:44:47;14.30;;;8.37;;
21266;SDS011;10791;53.108;18.326;2022-12-29T00:49:51;13.87;;;9.40;;
21266;SDS011;10791;53.108;18.326;2022-12-29T00:54:56;17.47;;;8.60;;
21266;SDS011;10791;53.108;18.326;2022-12-29T00:59:59;13.83;;;8.20;;
21266;SDS011;10791;53.108;18.326;2022-12-29T01:05:03;13.30;;;8.33;;
21266;SDS011;10791;53.108;18.326;2022-12-29T01:10:07;14.57;;;7.93;;
21266;SDS011;10791;53.108;18.326;2022-12-29T01:15:14;15.07;;;9.43;;
21266;SDS011;10791;53.108;18.326;2022-12-29T01:20:18;14.37;;;8.37;;
21266;SDS011;10791;53.108;18.326;2022-12-29T01:25:21;12.33;;;8.57;;
21266;SDS011;10791;53.108;18.326;2022-12-29T01:30:25;13.23;;;8.60;;
21266;SDS011;10791;53.108;18.326;2022-12-29T01:35:28;15.03;;;8.10;;
21266;SDS011;10791;53.108;18.326;2022-12-29T01:40:32;15.20;;;8.77;;
21266;SDS011;10791;53.108;18.326;2022-12-29T01:45:35;11.73;;;7.47;;
21266;SDS011;10791;53.108;18.326;2022-12-29T01:50:40;15.43;;;7.97;;
21266;SDS011;10791;53.108;18.326;2022-12-29T01:55:53;18.17;;;10.07;;
21266;SDS011;10791;53.108;18.326;2022-12-29T02:00:59;14.80;;;8.60;;
21266;SDS011;10791;53.108;18.326;2022-12-29T02:06:05;14.20;;;7.90;;
21266;SDS011;10791;53.108;18.326;2022-12-29T02:11:19;16.83;;;9.07;;
21266;SDS011;10791;53.108;18.326;2022-12-29T02:38:34;10.63;;;6.27;;
21266;SDS011;10791;53.108;18.326;2022-12-29T02:44:24;15.37;;;7.67;;
21266;SDS011;10791;53.108;18.326;2022-12-29T02:49:26;11.37;;;6.90;;
21266;SDS011;10791;53.108;18.326;2022-12-29T02:54:53;8.83;;;5.67;;
21266;SDS011;10791;53.108;18.326;2022-12-29T03:00:02;11.50;;;6.20;;
21266;SDS011;10791;53.108;18.326;2022-12-29T03:16:01;10.00;;;5.93;;
21266;SDS011;10791;53.108;18.326;2022-12-29T03:21:46;8.73;;;6.07;;
21266;SDS011;10791;53.108;18.326;2022-12-29T03:27:25;14.20;;;6.17;;
21266;SDS011;10791;53.108;18.326;2022-12-29T03:33:02;10.83;;;5.70;;
21266;SDS011;10791;53.108;18.326;2022-12-29T03:38:13;8.30;;;4.73;;
21266;SDS011;10791;53.108;18.326;2022-12-29T03:43:27;10.27;;;5.73;;
21266;SDS011;10791;53.108;18.326;2022-12-29T03:48:31;9.83;;;5.77;;
21266;SDS011;10791;53.108;18.326;2022-12-29T03:53:35;9.67;;;5.90;;
21266;SDS011;10791;53.108;18.326;2022-12-29T03:58:39;13.03;;;6.17;;
21266;SDS011;10791;53.108;18.326;2022-12-29T04:03:42;15.13;;;6.17;;
21266;SDS011;10791;53.108;18.326;2022-12-29T04:08:45;11.90;;;6.37;;
21266;SDS011;10791;53.108;18.326;2022-12-29T04:13:49;10.60;;;6.03;;
21266;SDS011;10791;53.108;18.326;2022-12-29T04:18:52;10.27;;;5.77;;
21266;SDS011;10791;53.108;18.326;2022-12-29T04:23:56;11.17;;;6.00;;
21266;SDS011;10791;53.108;18.326;2022-12-29T04:28:59;8.10;;;5.27;;
21266;SDS011;10791;53.108;18.326;2022-12-29T04:34:03;9.90;;;5.17;;
21266;SDS011;10791;53.108;18.326;2022-12-29T04:39:07;8.23;;;4.73;;
21266;SDS011;10791;53.108;18.326;2022-12-29T04:44:11;7.67;;;5.27;;
21266;SDS011;10791;53.108;18.326;2022-12-29T04:49:15;11.03;;;5.23;;
21266;SDS011;10791;53.108;18.326;2022-12-29T04:54:19;9.63;;;5.60;;
21266;SDS011;10791;53.108;18.326;2022-12-29T04:59:22;8.57;;;4.40;;
21266;SDS011;10791;53.108;18.326;2022-12-29T05:09:55;10.37;;;5.77;;
21266;SDS011;10791;53.108;18.326;2022-12-29T05:14:59;15.57;;;6.87;;
21266;SDS011;10791;53.108;18.326;2022-12-29T05:20:03;15.93;;;7.83;;
21266;SDS011;10791;53.108;18.326;2022-12-29T05:25:08;15.07;;;7.03;;
21266;SDS011;10791;53.108;18.326;2022-12-29T05:30:12;9.87;;;6.13;;
21266;SDS011;10791;53.108;18.326;2022-12-29T05:35:15;9.73;;;5.03;;
21266;SDS011;10791;53.108;18.326;2022-12-29T05:40:19;8.77;;;5.43;;
21266;SDS011;10791;53.108;18.326;2022-12-29T05:45:22;7.80;;;4.63;;
21266;SDS011;10791;53.108;18.326;2022-12-29T05:50:26;7.33;;;4.20;;
21266;SDS011;10791;53.108;18.326;2022-12-29T05:55:29;7.83;;;5.17;;
21266;SDS011;10791;53.108;18.326;2022-12-29T06:00:34;5.23;;;3.80;;
21266;SDS011;10791;53.108;18.326;2022-12-29T06:05:37;8.53;;;4.33;;
21266;SDS011;10791;53.108;18.326;2022-12-29T06:10:41;6.10;;;3.07;;
21266;SDS011;10791;53.108;18.326;2022-12-29T06:15:44;7.47;;;3.60;;
21266;SDS011;10791;53.108;18.326;2022-12-29T06:20:52;8.40;;;3.57;;
21266;SDS011;10791;53.108;18.326;2022-12-29T06:25:56;8.00;;;4.03;;
21266;SDS011;10791;53.108;18.326;2022-12-29T06:30:59;9.93;;;4.70;;
21266;SDS011;10791;53.108;18.326;2022-12-29T06:36:05;6.87;;;3.73;;
21266;SDS011;10791;53.108;18.326;2022-12-29T06:41:09;5.90;;;3.47;;
21266;SDS011;10791;53.108;18.326;2022-12-29T06:46:12;3.87;;;2.63;;
21266;SDS011;10791;53.108;18.326;2022-12-29T06:51:16;5.43;;;3.00;;
21266;SDS011;10791;53.108;18.326;2022-12-29T06:56:19;6.13;;;2.93;;
21266;SDS011;10791;53.108;18.326;2022-12-29T07:01:22;8.23;;;3.60;;
21266;SDS011;10791;53.108;18.326;2022-12-29T07:06:26;6.80;;;3.70;;
21266;SDS011;10791;53.108;18.326;2022-12-29T07:11:29;5.57;;;3.07;;
21266;SDS011;10791;53.108;18.326;2022-12-29T07:16:33;6.07;;;3.50;;
21266;SDS011;10791;53.108;18.326;2022-12-29T07:21:37;10.30;;;4.13;;
21266;SDS011;10791;53.108;18.326;2022-12-29T07:26:48;7.50;;;3.80;;
21266;SDS011;10791;53.108;18.326;2022-12-29T07:31:51;7.87;;;3.20;;
21266;SDS011;10791;53.108;18.326;2022-12-29T07:36:55;7.73;;;4.30;;
21266;SDS011;10791;53.108;18.326;2022-12-29T07:41:58;6.67;;;3.60;;
21266;SDS011;10791;53.108;18.326;2022-12-29T07:47:06;5.97;;;3.20;;
21266;SDS011;10791;53.108;18.326;2022-12-29T07:52:09;8.87;;;3.00;;
21266;SDS011;10791;53.108;18.326;2022-12-29T07:57:13;4.97;;;2.87;;
21266;SDS011;10791;53.108;18.326;2022-12-29T08:02:16;5.53;;;2.93;;
21266;SDS011;10791;53.108;18.326;2022-12-29T08:07:20;6.63;;;3.40;;
21266;SDS011;10791;53.108;18.326;2022-12-29T08:12:24;12.17;;;4.77;;
21266;SDS011;10791;53.108;18.326;2022-12-29T08:17:28;6.03;;;3.13;;
21266;SDS011;10791;53.108;18.326;2022-12-29T08:22:31;6.83;;;4.00;;
21266;SDS011;10791;53.108;18.326;2022-12-29T08:27:35;10.63;;;3.90;;
21266;SDS011;10791;53.108;18.326;2022-12-29T08:32:40;6.13;;;3.37;;
21266;SDS011;10791;53.108;18.326;2022-12-29T08:37:47;8.27;;;4.20;;
21266;SDS011;10791;53.108;18.326;2022-12-29T08:42:51;10.93;;;4.30;;
21266;SDS011;10791;53.108;18.326;2022-12-29T08:47:54;9.53;;;3.90;;
21266;SDS011;10791;53.108;18.326;2022-12-29T08:52:57;7.23;;;2.83;;
21266;SDS011;10791;53.108;18.326;2022-12-29T08:58:01;6.70;;;2.90;;
21266;SDS011;10791;53.108;18.326;2022-12-29T09:03:05;11.97;;;5.10;;
21266;SDS011;10791;53.108;18.326;2022-12-29T09:08:09;9.17;;;4.70;;
21266;SDS011;10791;53.108;18.326;2022-12-29T09:13:14;6.93;;;3.20;;
21266;SDS011;10791;53.108;18.326;2022-12-29T09:18:18;5.77;;;3.07;;
21266;SDS011;10791;53.108;18.326;2022-12-29T09:23:27;8.80;;;4.20;;
21266;SDS011;10791;53.108;18.326;2022-12-29T09:28:31;5.07;;;2.73;;
21266;SDS011;10791;53.108;18.326;2022-12-29T09:33:34;6.13;;;3.20;;
21266;SDS011;10791;53.108;18.326;2022-12-29T09:38:41;6.40;;;3.37;;
21266;SDS011;10791;53.108;18.326;2022-12-29T09:54:38;5.80;;;3.17;;
21266;SDS011;10791;53.108;18.326;2022-12-29T10:00:08;7.10;;;3.60;;
21266;SDS011;10791;53.108;18.326;2022-12-29T10:05:27;9.57;;;4.20;;
21266;SDS011;10791;53.108;18.326;2022-12-29T10:10:40;6.10;;;3.50;;
21266;SDS011;10791;53.108;18.326;2022-12-29T10:15:58;6.07;;;3.30;;
21266;SDS011;10791;53.108;18.326;2022-12-29T10:26:29;6.23;;;3.17;;
21266;SDS011;10791;53.108;18.326;2022-12-29T10:31:44;6.10;;;3.40;;
21266;SDS011;10791;53.108;18.326;2022-12-29T10:36:54;5.93;;;3.40;;
21266;SDS011;10791;53.108;18.326;2022-12-29T10:42:26;5.67;;;3.10;;
21266;SDS011;10791;53.108;18.326;2022-12-29T10:47:52;6.73;;;3.13;;
21266;SDS011;10791;53.108;18.326;2022-12-29T10:53:02;9.10;;;3.70;;
21266;SDS011;10791;53.108;18.326;2022-12-29T10:58:10;8.27;;;3.27;;
21266;SDS011;10791;53.108;18.326;2022-12-29T11:19:34;7.27;;;4.20;;
21266;SDS011;10791;53.108;18.326;2022-12-29T11:24:45;7.50;;;3.63;;
21266;SDS011;10791;53.108;18.326;2022-12-29T11:29:50;7.33;;;4.03;;
21266;SDS011;10791;53.108;18.326;2022-12-29T11:34:56;8.13;;;3.73;;
21266;SDS011;10791;53.108;18.326;2022-12-29T11:40:02;7.67;;;4.27;;
21266;SDS011;10791;53.108;18.326;2022-12-29T11:50:28;7.67;;;3.70;;
21266;SDS011;10791;53.108;18.326;2022-12-29T11:55:34;7.07;;;3.33;;
21266;SDS011;10791;53.108;18.326;2022-12-29T12:00:38;9.47;;;4.23;;
21266;SDS011;10791;53.108;18.326;2022-12-29T12:05:47;7.23;;;4.10;;
21266;SDS011;10791;53.108;18.326;2022-12-29T12:16:13;6.50;;;3.13;;
21266;SDS011;10791;53.108;18.326;2022-12-29T12:21:27;8.67;;;3.53;;
21266;SDS011;10791;53.108;18.326;2022-12-29T12:27:01;6.50;;;3.33;;
21266;SDS011;10791;53.108;18.326;2022-12-29T12:32:11;7.87;;;3.77;;
21266;SDS011;10791;53.108;18.326;2022-12-29T12:48:26;6.67;;;3.57;;
21266;SDS011;10791;53.108;18.326;2022-12-29T12:53:58;9.47;;;3.80;;
21266;SDS011;10791;53.108;18.326;2022-12-29T12:59:38;10.00;;;4.07;;
21266;SDS011;10791;53.108;18.326;2022-12-29T13:16:00;8.17;;;2.97;;
21266;SDS011;10791;53.108;18.326;2022-12-29T13:26:43;6.33;;;3.10;;
21266;SDS011;10791;53.108;18.326;2022-12-29T13:37:09;8.10;;;2.83;;
21266;SDS011;10791;53.108;18.326;2022-12-29T13:42:17;5.37;;;2.60;;
21266;SDS011;10791;53.108;18.326;2022-12-29T13:47:30;6.50;;;3.10;;
21266;SDS011;10791;53.108;18.326;2022-12-29T13:52:40;6.67;;;3.03;;
21266;SDS011;10791;53.108;18.326;2022-12-29T14:08:52;7.30;;;2.60;;
21266;SDS011;10791;53.108;18.326;2022-12-29T14:13:59;6.80;;;3.47;;
21266;SDS011;10791;53.108;18.326;2022-12-29T14:19:31;8.97;;;3.40;;
21266;SDS011;10791;53.108;18.326;2022-12-29T14:24:40;8.53;;;3.57;;
21266;SDS011;10791;53.108;18.326;2022-12-29T14:29:50;8.20;;;4.23;;
21266;SDS011;10791;53.108;18.326;2022-12-29T14:34:58;12.60;;;5.00;;
21266;SDS011;10791;53.108;18.326;2022-12-29T14:40:25;10.50;;;5.03;;
21266;SDS011;10791;53.108;18.326;2022-12-29T14:45:29;10.77;;;5.73;;
21266;SDS011;10791;53.108;18.326;2022-12-29T14:50:39;61.07;;;10.80;;
21266;SDS011;10791;53.108;18.326;2022-12-29T14:55:46;12.83;;;6.73;;
21266;SDS011;10791;53.108;18.326;2022-12-29T15:00:56;20.07;;;7.50;;
21266;SDS011;10791;53.108;18.326;2022-12-29T15:06:04;24.07;;;10.40;;
21266;SDS011;10791;53.108;18.326;2022-12-29T15:11:21;24.70;;;10.47;;
21266;SDS011;10791;53.108;18.326;2022-12-29T15:16:32;22.97;;;10.33;;
21266;SDS011;10791;53.108;18.326;2022-12-29T15:21:39;26.87;;;12.30;;
21266;SDS011;10791;53.108;18.326;2022-12-29T15:26:46;20.60;;;9.20;;
21266;SDS011;10791;53.108;18.326;2022-12-29T15:31:51;15.47;;;7.33;;
21266;SDS011;10791;53.108;18.326;2022-12-29T15:36:55;30.87;;;11.23;;
21266;SDS011;10791;53.108;18.326;2022-12-29T15:42:04;19.97;;;10.10;;
21266;SDS011;10791;53.108;18.326;2022-12-29T15:47:36;21.90;;;10.13;;
21266;SDS011;10791;53.108;18.326;2022-12-29T15:52:41;18.93;;;8.80;;
21266;SDS011;10791;53.108;18.326;2022-12-29T15:57:46;18.70;;;8.53;;
21266;SDS011;10791;53.108;18.326;2022-12-29T16:02:49;17.53;;;8.17;;
21266;SDS011;10791;53.108;18.326;2022-12-29T16:07:55;19.87;;;8.40;;
21266;SDS011;10791;53.108;18.326;2022-12-29T16:18:27;22.37;;;8.57;;
21266;SDS011;10791;53.108;18.326;2022-12-29T16:23:37;13.77;;;6.73;;
21266;SDS011;10791;53.108;18.326;2022-12-29T16:28:41;12.23;;;5.73;;
21266;SDS011;10791;53.108;18.326;2022-12-29T16:33:53;12.60;;;7.17;;
21266;SDS011;10791;53.108;18.326;2022-12-29T16:44:33;11.00;;;6.77;;
21266;SDS011;10791;53.108;18.326;2022-12-29T16:49:39;10.67;;;6.07;;
21266;SDS011;10791;53.108;18.326;2022-12-29T16:54:54;14.17;;;6.73;;
21266;SDS011;10791;53.108;18.326;2022-12-29T17:00:01;13.43;;;6.13;;
21266;SDS011;10791;53.108;18.326;2022-12-29T17:05:12;18.00;;;5.87;;
21266;SDS011;10791;53.108;18.326;2022-12-29T17:10:16;16.27;;;6.37;;
21266;SDS011;10791;53.108;18.326;2022-12-29T17:15:21;11.80;;;5.60;;
21266;SDS011;10791;53.108;18.326;2022-12-29T17:20:34;12.30;;;6.23;;
21266;SDS011;10791;53.108;18.326;2022-12-29T17:25:38;12.17;;;6.63;;
21266;SDS011;10791;53.108;18.326;2022-12-29T17:30:42;13.10;;;6.67;;
21266;SDS011;10791;53.108;18.326;2022-12-29T17:35:46;13.57;;;5.97;;
21266;SDS011;10791;53.108;18.326;2022-12-29T17:40:56;10.83;;;5.77;;
21266;SDS011;10791;53.108;18.326;2022-12-29T17:46:00;13.80;;;5.90;;
21266;SDS011;10791;53.108;18.326;2022-12-29T17:51:04;9.50;;;5.67;;
21266;SDS011;10791;53.108;18.326;2022-12-29T17:56:07;10.60;;;5.50;;
21266;SDS011;10791;53.108;18.326;2022-12-29T18:01:11;10.50;;;5.13;;
21266;SDS011;10791;53.108;18.326;2022-12-29T18:06:15;11.07;;;5.13;;
21266;SDS011;10791;53.108;18.326;2022-12-29T18:11:24;10.57;;;5.47;;
21266;SDS011;10791;53.108;18.326;2022-12-29T18:16:29;13.27;;;4.63;;
21266;SDS011;10791;53.108;18.326;2022-12-29T18:21:33;10.23;;;5.30;;
21266;SDS011;10791;53.108;18.326;2022-12-29T18:26:38;10.57;;;5.97;;
21266;SDS011;10791;53.108;18.326;2022-12-29T18:31:42;13.30;;;5.83;;
21266;SDS011;10791;53.108;18.326;2022-12-29T18:36:47;10.30;;;5.10;;
21266;SDS011;10791;53.108;18.326;2022-12-29T18:41:50;9.07;;;5.50;;
21266;SDS011;10791;53.108;18.326;2022-12-29T18:46:54;9.43;;;5.47;;
21266;SDS011;10791;53.108;18.326;2022-12-29T18:51:58;11.13;;;5.33;;
21266;SDS011;10791;53.108;18.326;2022-12-29T18:57:02;12.20;;;5.47;;
21266;SDS011;10791;53.108;18.326;2022-12-29T19:02:08;15.77;;;7.37;;
21266;SDS011;10791;53.108;18.326;2022-12-29T19:07:19;16.57;;;7.43;;
21266;SDS011;10791;53.108;18.326;2022-12-29T19:12:23;19.47;;;8.10;;
21266;SDS011;10791;53.108;18.326;2022-12-29T19:17:30;18.23;;;8.50;;
21266;SDS011;10791;53.108;18.326;2022-12-29T19:22:33;17.43;;;8.67;;
21266;SDS011;10791;53.108;18.326;2022-12-29T19:27:39;14.90;;;7.10;;
21266;SDS011;10791;53.108;18.326;2022-12-29T19:32:42;15.20;;;7.03;;
21266;SDS011;10791;53.108;18.326;2022-12-29T19:37:47;12.70;;;6.50;;
21266;SDS011;10791;53.108;18.326;2022-12-29T19:42:51;12.87;;;6.40;;
21266;SDS011;10791;53.108;18.326;2022-12-29T19:47:55;14.23;;;6.73;;
21266;SDS011;10791;53.108;18.326;2022-12-29T19:52:59;15.30;;;7.37;;
21266;SDS011;10791;53.108;18.326;2022-12-29T19:58:06;12.17;;;6.70;;
21266;SDS011;10791;53.108;18.326;2022-12-29T20:03:10;13.70;;;7.57;;
21266;SDS011;10791;53.108;18.326;2022-12-29T20:08:15;15.80;;;8.30;;
21266;SDS011;10791;53.108;18.326;2022-12-29T20:13:35;16.10;;;7.47;;
21266;SDS011;10791;53.108;18.326;2022-12-29T20:18:41;11.90;;;6.17;;
21266;SDS011;10791;53.108;18.326;2022-12-29T20:23:50;13.83;;;6.13;;
21266;SDS011;10791;53.108;18.326;2022-12-29T20:28:55;16.27;;;6.93;;
21266;SDS011;10791;53.108;18.326;2022-12-29T20:33:59;12.67;;;5.57;;
21266;SDS011;10791;53.108;18.326;2022-12-29T20:39:05;12.63;;;5.73;;
21266;SDS011;10791;53.108;18.326;2022-12-29T20:44:11;13.07;;;6.63;;
21266;SDS011;10791;53.108;18.326;2022-12-29T20:49:16;8.97;;;4.90;;
21266;SDS011;10791;53.108;18.326;2022-12-29T20:54:20;9.97;;;5.83;;
21266;SDS011;10791;53.108;18.326;2022-12-29T20:59:24;9.63;;;4.90;;
21266;SDS011;10791;53.108;18.326;2022-12-29T21:04:30;9.43;;;5.57;;
21266;SDS011;10791;53.108;18.326;2022-12-29T21:09:54;11.13;;;5.53;;
21266;SDS011;10791;53.108;18.326;2022-12-29T21:14:58;9.10;;;4.63;;
21266;SDS011;10791;53.108;18.326;2022-12-29T21:20:01;7.73;;;3.97;;
21266;SDS011;10791;53.108;18.326;2022-12-29T21:25:05;12.00;;;4.73;;
21266;SDS011;10791;53.108;18.326;2022-12-29T21:30:11;7.63;;;4.33;;
21266;SDS011;10791;53.108;18.326;2022-12-29T21:35:14;10.33;;;5.47;;
21266;SDS011;10791;53.108;18.326;2022-12-29T21:40:18;8.70;;;4.80;;
21266;SDS011;10791;53.108;18.326;2022-12-29T21:45:25;8.50;;;5.10;;
21266;SDS011;10791;53.108;18.326;2022-12-29T21:50:29;11.57;;;5.07;;
21266;SDS011;10791;53.108;18.326;2022-12-29T21:55:32;9.47;;;5.20;;
21266;SDS011;10791;53.108;18.326;2022-12-29T22:00:36;8.97;;;5.20;;
21266;SDS011;10791;53.108;18.326;2022-12-29T22:05:59;9.00;;;4.93;;
21266;SDS011;10791;53.108;18.326;2022-12-29T22:11:21;9.17;;;4.90;;
21266;SDS011;10791;53.108;18.326;2022-12-29T22:16:43;9.00;;;5.13;;
21266;SDS011;10791;53.108;18.326;2022-12-29T22:21:48;10.80;;;5.37;;
21266;SDS011;10791;53.108;18.326;2022-12-29T22:26:52;12.93;;;5.67;;
21266;SDS011;10791;53.108;18.326;2022-12-29T22:31:56;13.27;;;5.07;;
21266;SDS011;10791;53.108;18.326;2022-12-29T22:37:00;13.93;;;5.13;;
21266;SDS011;10791;53.108;18.326;2022-12-29T22:42:04;8.57;;;5.50;;
21266;SDS011;10791;53.108;18.326;2022-12-29T22:47:10;9.40;;;5.07;;
21266;SDS011;10791;53.108;18.326;2022-12-29T22:52:15;10.73;;;5.03;;
21266;SDS011;10791;53.108;18.326;2022-12-29T22:57:18;11.27;;;5.40;;
21266;SDS011;10791;53.108;18.326;2022-12-29T23:02:22;12.73;;;5.67;;
21266;SDS011;10791;53.108;18.326;2022-12-29T23:07:26;11.27;;;5.10;;
21266;SDS011;10791;53.108;18.326;2022-12-29T23:12:29;9.70;;;5.07;;
21266;SDS011;10791;53.108;18.326;2022-12-29T23:17:34;9.37;;;4.67;;
21266;SDS011;10791;53.108;18.326;2022-12-29T23:22:38;9.47;;;4.30;;
21266;SDS011;10791;53.108;18.326;2022-12-29T23:27:42;10.37;;;5.03;;
21266;SDS011;10791;53.108;18.326;2022-12-29T23:32:45;9.57;;;4.80;;
21266;SDS011;10791;53.108;18.326;2022-12-29T23:37:49;12.47;;;4.47;;
21266;SDS011;10791;53.108;18.326;2022-12-29T23:42:53;9.57;;;4.60;;
21266;SDS011;10791;53.108;18.326;2022-12-29T23:47:56;9.77;;;4.43;;
21266;SDS011;10791;53.108;18.326;2022-12-29T23:53:00;8.17;;;4.20;;
21266;SDS011;10791;53.108;18.326;2022-12-29T23:58:03;9.33;;;4.50;;
